sensor_id;sensor_type;location;lat;lon;timestamp;pressure;altitude;pressure_sealevel;temperature;humidity
59608;BME280;45426;44.726;10.390;2023-04-22T00:00:16;100497.50;;;13.18;100.00
59608;BME280;45426;44.726;10.390;2023-04-22T00:02:42;100489.59;;;13.42;100.00
59608;BME280;45426;44.726;10.390;2023-04-22T00:05:08;100488.81;;;13.41;100.00
59608;BME280;45426;44.726;10.390;2023-04-22T00:07:37;100483.53;;;13.48;100.00
59608;BME280;45426;44.726;10.390;2023-04-22T00:10:03;100487.78;;;13.05;100.00
59608;BME280;45426;44.726;10.390;2023-04-22T00:12:29;100487.78;;;12.77;100.00
59608;BME280;45426;44.726;10.390;2023-04-22T00:14:56;100489.50;;;13.10;100.00
59608;BME280;45426;44.726;10.390;2023-04-22T00:17:21;100483.63;;;13.24;100.00
59608;BME280;45426;44.726;10.390;2023-04-22T00:19:47;100469.72;;;13.41;100.00
59608;BME280;45426;44.726;10.390;2023-04-22T00:22:13;100481.78;;;13.56;100.00
59608;BME280;45426;44.726;10.390;2023-04-22T00:24:38;100481.50;;;13.61;100.00
59608;BME280;45426;44.726;10.390;2023-04-22T00:27:04;100481.16;;;13.63;100.00
59608;BME280;45426;44.726;10.390;2023-04-22T00:29:29;100475.34;;;13.64;100.00
59608;BME280;45426;44.726;10.390;2023-04-22T00:31:58;100478.97;;;13.68;100.00
59608;BME280;45426;44.726;10.390;2023-04-22T00:34:23;100482.91;;;13.71;100.00
59608;BME280;45426;44.726;10.390;2023-04-22T00:36:49;100481.00;;;14.03;100.00
59608;BME280;45426;44.726;10.390;2023-04-22T00:39:15;100484.53;;;13.72;100.00
59608;BME280;45426;44.726;10.390;2023-04-22T00:41:42;100483.63;;;13.68;100.00
59608;BME280;45426;44.726;10.390;2023-04-22T00:44:10;100483.16;;;13.34;100.00
59608;BME280;45426;44.726;10.390;2023-04-22T00:46:39;100491.69;;;12.63;100.00
59608;BME280;45426;44.726;10.390;2023-04-22T00:49:06;100491.09;;;12.70;100.00
59608;BME280;45426;44.726;10.390;2023-04-22T00:51:31;100494.34;;;12.88;100.00
59608;BME280;45426;44.726;10.390;2023-04-22T00:53:57;100495.69;;;12.94;100.00
59608;BME280;45426;44.726;10.390;2023-04-22T00:56:27;100493.47;;;13.40;100.00
59608;BME280;45426;44.726;10.390;2023-04-22T00:58:53;100496.25;;;13.00;100.00
59608;BME280;45426;44.726;10.390;2023-04-22T01:01:19;100489.72;;;13.05;100.00
59608;BME280;45426;44.726;10.390;2023-04-22T01:03:47;100489.94;;;12.84;100.00
59608;BME280;45426;44.726;10.390;2023-04-22T01:06:14;100487.78;;;13.05;100.00
59608;BME280;45426;44.726;10.390;2023-04-22T01:08:40;100486.59;;;13.18;100.00
59608;BME280;45426;44.726;10.390;2023-04-22T01:11:06;100477.31;;;13.07;100.00
59608;BME280;45426;44.726;10.390;2023-04-22T01:13:32;100480.59;;;13.13;100.00
59608;BME280;45426;44.726;10.390;2023-04-22T01:15:59;100489.31;;;13.18;100.00
59608;BME280;45426;44.726;10.390;2023-04-22T01:18:25;100483.19;;;12.53;100.00
59608;BME280;45426;44.726;10.390;2023-04-22T01:20:51;100484.78;;;12.41;100.00
59608;BME280;45426;44.726;10.390;2023-04-22T01:23:20;100476.72;;;12.45;100.00
59608;BME280;45426;44.726;10.390;2023-04-22T01:25:47;100483.22;;;12.28;100.00
59608;BME280;45426;44.726;10.390;2023-04-22T01:28:15;100485.38;;;12.35;100.00
59608;BME280;45426;44.726;10.390;2023-04-22T01:30:41;100484.78;;;12.54;100.00
59608;BME280;45426;44.726;10.390;2023-04-22T01:33:11;100484.06;;;13.26;100.00
59608;BME280;45426;44.726;10.390;2023-04-22T01:35:36;100482.16;;;12.57;100.00
59608;BME280;45426;44.726;10.390;2023-04-22T01:38:03;100485.44;;;12.63;100.00
59608;BME280;45426;44.726;10.390;2023-04-22T01:40:30;100484.72;;;13.07;100.00
59608;BME280;45426;44.726;10.390;2023-04-22T01:42:59;100480.22;;;12.98;100.00
59608;BME280;45426;44.726;10.390;2023-04-22T01:45:26;100492.84;;;12.62;100.00
59608;BME280;45426;44.726;10.390;2023-04-22T01:47:51;100491.94;;;12.34;100.00
59608;BME280;45426;44.726;10.390;2023-04-22T01:50:17;100488.59;;;12.77;100.00
59608;BME280;45426;44.726;10.390;2023-04-22T01:52:43;100479.53;;;13.30;100.00
59608;BME280;45426;44.726;10.390;2023-04-22T01:55:09;100472.63;;;13.20;100.00
59608;BME280;45426;44.726;10.390;2023-04-22T01:57:35;100482.16;;;13.26;100.00
59608;BME280;45426;44.726;10.390;2023-04-22T02:00:01;100478.53;;;12.94;100.00
59608;BME280;45426;44.726;10.390;2023-04-22T02:02:26;100486.22;;;12.76;100.00
59608;BME280;45426;44.726;10.390;2023-04-22T02:04:52;100480.69;;;12.88;100.00
59608;BME280;45426;44.726;10.390;2023-04-22T02:07:17;100479.28;;;13.07;100.00
59608;BME280;45426;44.726;10.390;2023-04-22T02:09:43;100493.41;;;12.56;100.00
59608;BME280;45426;44.726;10.390;2023-04-22T02:12:08;100484.78;;;12.54;100.00
59608;BME280;45426;44.726;10.390;2023-04-22T02:14:34;100485.44;;;12.51;100.00
59608;BME280;45426;44.726;10.390;2023-04-22T02:16:59;100488.44;;;12.46;100.00
59608;BME280;45426;44.726;10.390;2023-04-22T02:19:27;100484.28;;;11.99;100.00
59608;BME280;45426;44.726;10.390;2023-04-22T02:21:52;100484.00;;;12.29;100.00
59608;BME280;45426;44.726;10.390;2023-04-22T02:24:18;100481.06;;;12.09;100.00
59608;BME280;45426;44.726;10.390;2023-04-22T02:26:43;100480.44;;;12.53;100.00
59608;BME280;45426;44.726;10.390;2023-04-22T02:29:08;100473.97;;;12.57;100.00
59608;BME280;45426;44.726;10.390;2023-04-22T02:31:34;100494.47;;;12.14;100.00
59608;BME280;45426;44.726;10.390;2023-04-22T02:33:59;100482.44;;;12.28;100.00
59608;BME280;45426;44.726;10.390;2023-04-22T02:36:25;100470.97;;;12.75;100.00
59608;BME280;45426;44.726;10.390;2023-04-22T02:38:52;100484.25;;;12.11;100.00
59608;BME280;45426;44.726;10.390;2023-04-22T02:41:18;100472.53;;;12.35;100.00
59608;BME280;45426;44.726;10.390;2023-04-22T02:43:43;100479.03;;;12.18;100.00
59608;BME280;45426;44.726;10.390;2023-04-22T02:46:11;100474.88;;;12.49;100.00
59608;BME280;45426;44.726;10.390;2023-04-22T02:48:37;100476.53;;;12.13;100.00
59608;BME280;45426;44.726;10.390;2023-04-22T02:51:03;100482.03;;;11.68;100.00
59608;BME280;45426;44.726;10.390;2023-04-22T02:53:29;100487.03;;;11.65;100.00
59608;BME280;45426;44.726;10.390;2023-04-22T02:55:54;100481.72;;;11.69;100.00
59608;BME280;45426;44.726;10.390;2023-04-22T02:58:21;100483.75;;;11.72;100.00
59608;BME280;45426;44.726;10.390;2023-04-22T03:00:46;100486.06;;;11.95;100.00
59608;BME280;45426;44.726;10.390;2023-04-22T03:03:12;100480.34;;;11.75;100.00
59608;BME280;45426;44.726;10.390;2023-04-22T03:05:37;100480.34;;;11.88;100.00
59608;BME280;45426;44.726;10.390;2023-04-22T03:08:03;100472.66;;;12.39;100.00
59608;BME280;45426;44.726;10.390;2023-04-22T03:10:28;100473.94;;;11.92;100.00
59608;BME280;45426;44.726;10.390;2023-04-22T03:12:54;100474.16;;;12.36;100.00
59608;BME280;45426;44.726;10.390;2023-04-22T03:15:19;100473.69;;;12.22;100.00
59608;BME280;45426;44.726;10.390;2023-04-22T03:17:45;100482.31;;;12.24;100.00
59608;BME280;45426;44.726;10.390;2023-04-22T03:20:11;100473.97;;;12.57;100.00
59608;BME280;45426;44.726;10.390;2023-04-22T03:22:36;100474.03;;;12.20;100.00
59608;BME280;45426;44.726;10.390;2023-04-22T03:25:02;100473.28;;;12.60;100.00
59608;BME280;45426;44.726;10.390;2023-04-22T03:27:28;100476.16;;;12.52;100.00
59608;BME280;45426;44.726;10.390;2023-04-22T03:29:54;100477.44;;;12.42;100.00
59608;BME280;45426;44.726;10.390;2023-04-22T03:32:19;100466.28;;;12.47;100.00
59608;BME280;45426;44.726;10.390;2023-04-22T03:34:44;100457.53;;;12.54;100.00
59608;BME280;45426;44.726;10.390;2023-04-22T03:37:10;100470.53;;;12.20;100.00
59608;BME280;45426;44.726;10.390;2023-04-22T03:39:35;100471.88;;;12.14;100.00
59608;BME280;45426;44.726;10.390;2023-04-22T03:42:01;100462.88;;;12.38;100.00
59608;BME280;45426;44.726;10.390;2023-04-22T03:44:29;100463.00;;;12.41;100.00
59608;BME280;45426;44.726;10.390;2023-04-22T03:46:54;100466.06;;;12.40;100.00
59608;BME280;45426;44.726;10.390;2023-04-22T03:49:20;100464.19;;;12.69;100.00
59608;BME280;45426;44.726;10.390;2023-04-22T03:51:45;100469.44;;;12.61;100.00
59608;BME280;45426;44.726;10.390;2023-04-22T03:54:11;100471.72;;;12.47;100.00
59608;BME280;45426;44.726;10.390;2023-04-22T03:56:36;100470.63;;;12.23;100.00
59608;BME280;45426;44.726;10.390;2023-04-22T03:59:04;100475.69;;;11.63;100.00
59608;BME280;45426;44.726;10.390;2023-04-22T04:01:30;100475.75;;;11.42;100.00
59608;BME280;45426;44.726;10.390;2023-04-22T04:03:55;100478.53;;;11.79;100.00
59608;BME280;45426;44.726;10.390;2023-04-22T04:06:21;100473.56;;;12.06;100.00
59608;BME280;45426;44.726;10.390;2023-04-22T04:08:46;100469.06;;;12.10;100.00
59608;BME280;45426;44.726;10.390;2023-04-22T04:11:12;100466.31;;;11.98;100.00
59608;BME280;45426;44.726;10.390;2023-04-22T04:13:37;100470.16;;;11.84;100.00
59608;BME280;45426;44.726;10.390;2023-04-22T04:16:03;100473.94;;;12.04;100.00
59608;BME280;45426;44.726;10.390;2023-04-22T04:18:28;100475.16;;;11.82;100.00
59608;BME280;45426;44.726;10.390;2023-04-22T04:20:54;100467.25;;;11.90;100.00
59608;BME280;45426;44.726;10.390;2023-04-22T04:23:20;100469.59;;;11.91;100.00
59608;BME280;45426;44.726;10.390;2023-04-22T04:25:46;100475.06;;;12.03;100.00
59608;BME280;45426;44.726;10.390;2023-04-22T04:28:12;100472.53;;;11.86;100.00
59608;BME280;45426;44.726;10.390;2023-04-22T04:30:38;100482.47;;;11.57;100.00
59608;BME280;45426;44.726;10.390;2023-04-22T04:33:06;100472.09;;;12.33;100.00
59608;BME280;45426;44.726;10.390;2023-04-22T04:35:40;100472.81;;;12.71;100.00
59608;BME280;45426;44.726;10.390;2023-04-22T04:38:07;100485.00;;;12.61;100.00
59608;BME280;45426;44.726;10.390;2023-04-22T04:40:33;100487.47;;;12.66;100.00
59608;BME280;45426;44.726;10.390;2023-04-22T04:43:03;100488.94;;;12.63;100.00
59608;BME280;45426;44.726;10.390;2023-04-22T04:45:33;100477.47;;;12.70;100.00
59608;BME280;45426;44.726;10.390;2023-04-22T04:48:00;100487.94;;;12.68;100.00
59608;BME280;45426;44.726;10.390;2023-04-22T04:50:29;100491.75;;;12.79;100.00
59608;BME280;45426;44.726;10.390;2023-04-22T04:52:54;100481.09;;;13.02;100.00
59608;BME280;45426;44.726;10.390;2023-04-22T04:55:20;100489.28;;;13.02;100.00
59608;BME280;45426;44.726;10.390;2023-04-22T04:57:45;100482.94;;;12.70;100.00
59608;BME280;45426;44.726;10.390;2023-04-22T05:00:12;100489.28;;;13.02;100.00
59608;BME280;45426;44.726;10.390;2023-04-22T05:02:40;100485.03;;;12.89;100.00
59608;BME280;45426;44.726;10.390;2023-04-22T05:05:07;100485.53;;;13.35;100.00
59608;BME280;45426;44.726;10.390;2023-04-22T05:07:32;100477.09;;;13.40;100.00
59608;BME280;45426;44.726;10.390;2023-04-22T05:09:59;100480.72;;;13.61;100.00
59608;BME280;45426;44.726;10.390;2023-04-22T05:12:24;100491.34;;;12.65;100.00
59608;BME280;45426;44.726;10.390;2023-04-22T05:14:53;100493.56;;;12.22;100.00
59608;BME280;45426;44.726;10.390;2023-04-22T05:17:19;100490.56;;;12.52;100.00
59608;BME280;45426;44.726;10.390;2023-04-22T05:19:45;100487.59;;;13.86;100.00
59608;BME280;45426;44.726;10.390;2023-04-22T05:22:10;100481.59;;;13.49;100.00
59608;BME280;45426;44.726;10.390;2023-04-22T05:24:36;100493.94;;;14.06;100.00
59608;BME280;45426;44.726;10.390;2023-04-22T05:27:02;100487.78;;;14.45;100.00
59608;BME280;45426;44.726;10.390;2023-04-22T05:29:27;100494.09;;;13.50;100.00
59608;BME280;45426;44.726;10.390;2023-04-22T05:31:53;100493.28;;;14.29;100.00
59608;BME280;45426;44.726;10.390;2023-04-22T05:34:18;100487.78;;;14.45;100.00
59608;BME280;45426;44.726;10.390;2023-04-22T05:36:44;100492.97;;;13.51;100.00
59608;BME280;45426;44.726;10.390;2023-04-22T05:39:09;100501.53;;;13.37;100.00
59608;BME280;45426;44.726;10.390;2023-04-22T05:41:35;100497.25;;;13.52;100.00
59608;BME280;45426;44.726;10.390;2023-04-22T05:44:03;100511.38;;;13.70;100.00
59608;BME280;45426;44.726;10.390;2023-04-22T05:46:28;100503.19;;;13.86;100.00
59608;BME280;45426;44.726;10.390;2023-04-22T05:48:54;100502.47;;;14.72;100.00
59608;BME280;45426;44.726;10.390;2023-04-22T05:51:20;100500.16;;;15.56;100.00
59608;BME280;45426;44.726;10.390;2023-04-22T05:53:46;100511.56;;;15.58;100.00
59608;BME280;45426;44.726;10.390;2023-04-22T05:56:12;100507.38;;;15.21;100.00
59608;BME280;45426;44.726;10.390;2023-04-22T05:58:37;100503.25;;;15.74;100.00
59608;BME280;45426;44.726;10.390;2023-04-22T06:01:03;100514.41;;;15.42;100.00
59608;BME280;45426;44.726;10.390;2023-04-22T06:03:28;100516.66;;;15.36;100.00
59608;BME280;45426;44.726;10.390;2023-04-22T06:05:54;100512.22;;;15.51;100.00
59608;BME280;45426;44.726;10.390;2023-04-22T06:08:19;100517.00;;;16.00;100.00
59608;BME280;45426;44.726;10.390;2023-04-22T06:10:45;100519.81;;;16.04;100.00
59608;BME280;45426;44.726;10.390;2023-04-22T06:13:10;100523.06;;;15.86;100.00
59608;BME280;45426;44.726;10.390;2023-04-22T06:15:36;100526.34;;;16.49;100.00
59608;BME280;45426;44.726;10.390;2023-04-22T06:18:01;100516.47;;;17.73;100.00
59608;BME280;45426;44.726;10.390;2023-04-22T06:20:27;100515.34;;;16.72;100.00
59608;BME280;45426;44.726;10.390;2023-04-22T06:22:55;100519.59;;;17.00;100.00
59608;BME280;45426;44.726;10.390;2023-04-22T06:25:21;100527.41;;;15.91;100.00
59608;BME280;45426;44.726;10.390;2023-04-22T06:27:49;100527.00;;;17.30;100.00
59608;BME280;45426;44.726;10.390;2023-04-22T06:30:15;100538.00;;;15.50;100.00
59608;BME280;45426;44.726;10.390;2023-04-22T06:32:55;100522.63;;;17.21;100.00
59608;BME280;45426;44.726;10.390;2023-04-22T06:35:23;100536.78;;;16.13;100.00
59608;BME280;45426;44.726;10.390;2023-04-22T06:38:07;100523.00;;;18.54;100.00
59608;BME280;45426;44.726;10.390;2023-04-22T06:40:35;100520.72;;;19.72;100.00
59608;BME280;45426;44.726;10.390;2023-04-22T06:43:01;100525.34;;;18.52;100.00
59608;BME280;45426;44.726;10.390;2023-04-22T06:45:26;100514.34;;;19.57;100.00
59608;BME280;45426;44.726;10.390;2023-04-22T06:47:55;100507.31;;;22.43;100.00
59608;BME280;45426;44.726;10.390;2023-04-22T06:50:20;100519.19;;;22.40;100.00
59608;BME280;45426;44.726;10.390;2023-04-22T06:52:49;100519.25;;;23.05;100.00
59608;BME280;45426;44.726;10.390;2023-04-22T06:55:17;100514.56;;;27.43;100.00
59608;BME280;45426;44.726;10.390;2023-04-22T06:57:49;100511.41;;;27.15;100.00
59608;BME280;45426;44.726;10.390;2023-04-22T07:00:18;100514.59;;;28.03;100.00
59608;BME280;45426;44.726;10.390;2023-04-22T07:02:43;100522.94;;;30.35;100.00
59608;BME280;45426;44.726;10.390;2023-04-22T07:05:09;100517.81;;;31.65;100.00
59608;BME280;45426;44.726;10.390;2023-04-22T07:07:34;100522.28;;;30.87;100.00
59608;BME280;45426;44.726;10.390;2023-04-22T07:10:03;100515.72;;;31.99;100.00
59608;BME280;45426;44.726;10.390;2023-04-22T07:12:31;100523.38;;;29.47;100.00
59608;BME280;45426;44.726;10.390;2023-04-22T07:14:57;100523.25;;;30.28;100.00
59608;BME280;45426;44.726;10.390;2023-04-22T07:17:25;100521.88;;;27.88;100.00
59608;BME280;45426;44.726;10.390;2023-04-22T07:20:05;100512.00;;;31.69;100.00
59608;BME280;45426;44.726;10.390;2023-04-22T07:22:36;100504.31;;;33.67;100.00
59608;BME280;45426;44.726;10.390;2023-04-22T07:25:03;100506.75;;;33.59;100.00
59608;BME280;45426;44.726;10.390;2023-04-22T07:27:32;100506.84;;;35.05;82.21
59608;BME280;45426;44.726;10.390;2023-04-22T07:30:07;100510.16;;;31.90;100.00
59608;BME280;45426;44.726;10.390;2023-04-22T07:32:43;100506.50;;;31.99;100.00
59608;BME280;45426;44.726;10.390;2023-04-22T07:35:12;100504.66;;;32.20;93.34
59608;BME280;45426;44.726;10.390;2023-04-22T07:37:37;100505.47;;;30.13;100.00
59608;BME280;45426;44.726;10.390;2023-04-22T07:40:03;100496.16;;;32.29;99.16
59608;BME280;45426;44.726;10.390;2023-04-22T07:42:30;100501.53;;;33.01;88.08
59608;BME280;45426;44.726;10.390;2023-04-22T07:44:55;100492.88;;;32.90;92.87
59608;BME280;45426;44.726;10.390;2023-04-22T07:47:21;100501.72;;;33.28;87.93
59608;BME280;45426;44.726;10.390;2023-04-22T07:49:46;100504.50;;;33.63;88.67
59608;BME280;45426;44.726;10.390;2023-04-22T07:52:12;100505.03;;;34.70;79.70
59608;BME280;45426;44.726;10.390;2023-04-22T07:54:37;100506.66;;;34.82;80.22
59608;BME280;45426;44.726;10.390;2023-04-22T07:57:02;100507.38;;;33.13;80.63
59608;BME280;45426;44.726;10.390;2023-04-22T07:59:28;100498.47;;;33.35;83.28
59608;BME280;45426;44.726;10.390;2023-04-22T08:01:53;100508.75;;;31.28;87.76
59608;BME280;45426;44.726;10.390;2023-04-22T08:04:21;100502.09;;;34.12;83.05
59608;BME280;45426;44.726;10.390;2023-04-22T08:06:47;100500.03;;;32.31;84.25
59608;BME280;45426;44.726;10.390;2023-04-22T08:09:12;100502.88;;;33.21;75.75
59608;BME280;45426;44.726;10.390;2023-04-22T08:11:38;100502.56;;;31.81;80.29
59608;BME280;45426;44.726;10.390;2023-04-22T08:14:03;100499.50;;;31.94;80.56
59608;BME280;45426;44.726;10.390;2023-04-22T08:16:28;100503.66;;;31.60;82.16
59608;BME280;45426;44.726;10.390;2023-04-22T08:18:54;100500.97;;;30.62;88.17
59608;BME280;45426;44.726;10.390;2023-04-22T08:21:21;100502.41;;;31.51;100.00
59608;BME280;45426;44.726;10.390;2023-04-22T08:23:47;100512.03;;;30.37;97.65
59608;BME280;45426;44.726;10.390;2023-04-22T08:26:12;100499.63;;;31.51;100.00
59608;BME280;45426;44.726;10.390;2023-04-22T08:28:39;100511.06;;;27.64;100.00
59608;BME280;45426;44.726;10.390;2023-04-22T08:31:05;100509.41;;;27.03;100.00
59608;BME280;45426;44.726;10.390;2023-04-22T08:33:33;100511.41;;;25.65;100.00
59608;BME280;45426;44.726;10.390;2023-04-22T08:35:58;100516.75;;;24.63;100.00
59608;BME280;45426;44.726;10.390;2023-04-22T08:38:42;100505.53;;;24.27;100.00
59608;BME280;45426;44.726;10.390;2023-04-22T08:41:08;100494.78;;;24.05;100.00
59608;BME280;45426;44.726;10.390;2023-04-22T08:43:34;100496.75;;;24.52;100.00
59608;BME280;45426;44.726;10.390;2023-04-22T08:46:00;100493.69;;;24.66;100.00
59608;BME280;45426;44.726;10.390;2023-04-22T08:48:26;100492.34;;;25.31;100.00
59608;BME280;45426;44.726;10.390;2023-04-22T08:50:52;100492.72;;;23.35;100.00
59608;BME280;45426;44.726;10.390;2023-04-22T08:53:19;100482.91;;;22.99;100.00
59608;BME280;45426;44.726;10.390;2023-04-22T08:55:47;100479.25;;;23.88;100.00
59608;BME280;45426;44.726;10.390;2023-04-22T08:58:15;100483.78;;;24.21;100.00
59608;BME280;45426;44.726;10.390;2023-04-22T09:00:42;100480.56;;;24.03;100.00
59608;BME280;45426;44.726;10.390;2023-04-22T09:03:07;100477.06;;;24.42;100.00
59608;BME280;45426;44.726;10.390;2023-04-22T09:05:35;100478.84;;;23.62;100.00
59608;BME280;45426;44.726;10.390;2023-04-22T09:08:01;100474.16;;;23.04;100.00
59608;BME280;45426;44.726;10.390;2023-04-22T09:10:28;100476.41;;;24.15;100.00
59608;BME280;45426;44.726;10.390;2023-04-22T09:12:55;100478.28;;;22.55;100.00
59608;BME280;45426;44.726;10.390;2023-04-22T09:15:21;100470.06;;;23.13;100.00
59608;BME280;45426;44.726;10.390;2023-04-22T09:17:46;100466.84;;;23.18;100.00
59608;BME280;45426;44.726;10.390;2023-04-22T09:20:15;100465.72;;;23.90;100.00
59608;BME280;45426;44.726;10.390;2023-04-22T09:22:47;100459.13;;;24.47;100.00
59608;BME280;45426;44.726;10.390;2023-04-22T09:25:23;100461.19;;;23.25;100.00
59608;BME280;45426;44.726;10.390;2023-04-22T09:27:54;100463.78;;;21.60;100.00
59608;BME280;45426;44.726;10.390;2023-04-22T09:30:25;100460.53;;;22.52;100.00
59608;BME280;45426;44.726;10.390;2023-04-22T09:32:53;100457.63;;;23.24;100.00
59608;BME280;45426;44.726;10.390;2023-04-22T09:35:30;100455.94;;;23.03;100.00
59608;BME280;45426;44.726;10.390;2023-04-22T09:38:00;100452.56;;;22.58;100.00
59608;BME280;45426;44.726;10.390;2023-04-22T09:40:26;100459.44;;;23.08;100.00
59608;BME280;45426;44.726;10.390;2023-04-22T09:42:54;100443.44;;;23.70;100.00
59608;BME280;45426;44.726;10.390;2023-04-22T09:45:33;100448.78;;;24.28;100.00
59608;BME280;45426;44.726;10.390;2023-04-22T09:48:03;100452.34;;;23.84;100.00
59608;BME280;45426;44.726;10.390;2023-04-22T09:50:30;100456.13;;;24.78;100.00
59608;BME280;45426;44.726;10.390;2023-04-22T09:53:22;100450.09;;;25.36;100.00
59608;BME280;45426;44.726;10.390;2023-04-22T09:55:50;100447.31;;;24.43;100.00
59608;BME280;45426;44.726;10.390;2023-04-22T09:58:19;100449.22;;;23.32;100.00
59608;BME280;45426;44.726;10.390;2023-04-22T10:00:49;100450.28;;;24.92;100.00
59608;BME280;45426;44.726;10.390;2023-04-22T10:03:29;100449.53;;;24.52;100.00
59608;BME280;45426;44.726;10.390;2023-04-22T10:05:56;100449.16;;;23.35;100.00
59608;BME280;45426;44.726;10.390;2023-04-22T10:08:39;100440.25;;;23.48;100.00
59608;BME280;45426;44.726;10.390;2023-04-22T10:11:06;100446.00;;;23.60;100.00
59608;BME280;45426;44.726;10.390;2023-04-22T10:13:37;100434.16;;;23.56;100.00
59608;BME280;45426;44.726;10.390;2023-04-22T10:16:03;100435.06;;;23.73;100.00
59608;BME280;45426;44.726;10.390;2023-04-22T10:18:29;100425.91;;;23.53;100.00
59608;BME280;45426;44.726;10.390;2023-04-22T10:20:55;100427.44;;;23.03;100.00
59608;BME280;45426;44.726;10.390;2023-04-22T10:23:23;100433.97;;;22.20;100.00
59608;BME280;45426;44.726;10.390;2023-04-22T10:25:53;100432.78;;;23.68;100.00
59608;BME280;45426;44.726;10.390;2023-04-22T10:28:20;100423.63;;;23.48;100.00
59608;BME280;45426;44.726;10.390;2023-04-22T10:30:47;100415.09;;;23.86;100.00
59608;BME280;45426;44.726;10.390;2023-04-22T10:38:41;100413.69;;;23.74;100.00
59608;BME280;45426;44.726;10.390;2023-04-22T10:41:32;100409.00;;;24.14;100.00
59608;BME280;45426;44.726;10.390;2023-04-22T10:44:05;100405.34;;;23.97;100.00
59608;BME280;45426;44.726;10.390;2023-04-22T10:49:20;100405.16;;;23.14;100.00
59608;BME280;45426;44.726;10.390;2023-04-22T10:51:53;100402.19;;;24.59;100.00
59608;BME280;45426;44.726;10.390;2023-04-22T10:57:12;100398.31;;;24.33;100.00
59608;BME280;45426;44.726;10.390;2023-04-22T10:59:54;100405.03;;;24.15;100.00
59608;BME280;45426;44.726;10.390;2023-04-22T11:02:21;100397.66;;;23.85;100.00
59608;BME280;45426;44.726;10.390;2023-04-22T11:04:48;100404.66;;;24.13;100.00
59608;BME280;45426;44.726;10.390;2023-04-22T11:09:51;100395.16;;;23.67;100.00
59608;BME280;45426;44.726;10.390;2023-04-22T11:15:08;100402.72;;;24.10;100.00
59608;BME280;45426;44.726;10.390;2023-04-22T11:17:34;100392.84;;;24.09;100.00
59608;BME280;45426;44.726;10.390;2023-04-22T11:20:01;100383.41;;;23.36;100.00
59608;BME280;45426;44.726;10.390;2023-04-22T11:22:27;100382.53;;;23.15;100.00
59608;BME280;45426;44.726;10.390;2023-04-22T11:24:55;100376.75;;;24.60;100.00
59608;BME280;45426;44.726;10.390;2023-04-22T11:27:21;100377.28;;;24.15;100.00
59608;BME280;45426;44.726;10.390;2023-04-22T11:32:28;100379.81;;;23.62;100.00
59608;BME280;45426;44.726;10.390;2023-04-22T11:34:54;100371.91;;;24.65;100.00
59608;BME280;45426;44.726;10.390;2023-04-22T11:37:20;100373.47;;;24.66;100.00
59608;BME280;45426;44.726;10.390;2023-04-22T11:39:46;100377.06;;;24.26;100.00
59608;BME280;45426;44.726;10.390;2023-04-22T11:42:12;100370.47;;;23.29;100.00
59608;BME280;45426;44.726;10.390;2023-04-22T11:44:38;100370.47;;;22.44;100.00
59608;BME280;45426;44.726;10.390;2023-04-22T11:47:04;100365.25;;;22.80;100.00
59608;BME280;45426;44.726;10.390;2023-04-22T11:49:29;100370.09;;;23.74;100.00
59608;BME280;45426;44.726;10.390;2023-04-22T11:51:57;100364.03;;;24.79;100.00
59608;BME280;45426;44.726;10.390;2023-04-22T11:54:34;100371.00;;;24.31;100.00
59608;BME280;45426;44.726;10.390;2023-04-22T11:57:05;100366.22;;;24.52;100.00
59608;BME280;45426;44.726;10.390;2023-04-22T11:59:30;100367.31;;;23.98;100.00
59608;BME280;45426;44.726;10.390;2023-04-22T12:01:56;100364.44;;;23.81;100.00
59608;BME280;45426;44.726;10.390;2023-04-22T12:04:22;100357.41;;;23.02;100.00
59608;BME280;45426;44.726;10.390;2023-04-22T12:06:50;100357.84;;;22.43;100.00
59608;BME280;45426;44.726;10.390;2023-04-22T12:09:16;100358.13;;;22.79;100.00
59608;BME280;45426;44.726;10.390;2023-04-22T12:11:44;100358.16;;;23.77;100.00
59608;BME280;45426;44.726;10.390;2023-04-22T12:14:10;100360.47;;;24.02;100.00
59608;BME280;45426;44.726;10.390;2023-04-22T12:16:40;100360.66;;;24.52;100.00
59608;BME280;45426;44.726;10.390;2023-04-22T12:19:08;100368.44;;;24.20;100.00
59608;BME280;45426;44.726;10.390;2023-04-22T12:21:34;100366.22;;;23.92;100.00
59608;BME280;45426;44.726;10.390;2023-04-22T12:24:07;100353.59;;;23.20;100.00
59608;BME280;45426;44.726;10.390;2023-04-22T12:26:34;100347.03;;;22.18;100.00
59608;BME280;45426;44.726;10.390;2023-04-22T12:29:04;100346.44;;;24.10;100.00
59608;BME280;45426;44.726;10.390;2023-04-22T12:31:29;100352.03;;;23.66;100.00
59608;BME280;45426;44.726;10.390;2023-04-22T12:33:55;100337.47;;;24.78;100.00
59608;BME280;45426;44.726;10.390;2023-04-22T12:36:21;100349.19;;;24.70;100.00
59608;BME280;45426;44.726;10.390;2023-04-22T12:38:46;100334.94;;;24.48;100.00
59608;BME280;45426;44.726;10.390;2023-04-22T12:41:12;100330.47;;;24.54;100.00
59608;BME280;45426;44.726;10.390;2023-04-22T12:43:38;100340.47;;;24.11;100.00
59608;BME280;45426;44.726;10.390;2023-04-22T12:46:07;100337.13;;;24.00;100.00
59608;BME280;45426;44.726;10.390;2023-04-22T12:48:33;100337.06;;;23.60;100.00